sensor_id;sensor_type;location;lat;lon;timestamp;P1;durP1;ratioP1;P2;durP2;ratioP2
64678;SDS011;51094;53.864;27.676;2022-12-13T00:01:53;5.97;;;5.88;;
64678;SDS011;51094;53.864;27.676;2022-12-13T00:04:20;6.07;;;5.97;;
64678;SDS011;51094;53.864;27.676;2022-12-13T00:06:48;6.18;;;6.07;;
64678;SDS011;51094;53.864;27.676;2022-12-13T00:09:16;5.97;;;5.88;;
64678;SDS011;51094;53.864;27.676;2022-12-13T00:11:44;6.28;;;6.18;;
64678;SDS011;51094;53.864;27.676;2022-12-13T00:14:11;6.15;;;6.05;;
64678;SDS011;51094;53.864;27.676;2022-12-13T00:16:39;5.78;;;5.68;;
64678;SDS011;51094;53.864;27.676;2022-12-13T00:19:11;6.10;;;6.00;;
64678;SDS011;51094;53.864;27.676;2022-12-13T00:21:38;6.07;;;5.97;;
64678;SDS011;51094;53.864;27.676;2022-12-13T00:24:05;5.93;;;5.82;;
64678;SDS011;51094;53.864;27.676;2022-12-13T00:26:33;5.90;;;5.80;;
64678;SDS011;51094;53.864;27.676;2022-12-13T00:29:01;5.70;;;5.60;;
64678;SDS011;51094;53.864;27.676;2022-12-13T00:31:29;6.15;;;6.05;;
64678;SDS011;51094;53.864;27.676;2022-12-13T00:34:17;6.10;;;6.00;;
64678;SDS011;51094;53.864;27.676;2022-12-13T00:36:44;5.95;;;5.85;;
64678;SDS011;51094;53.864;27.676;2022-12-13T00:39:11;5.90;;;5.80;;
64678;SDS011;51094;53.864;27.676;2022-12-13T00:41:39;6.20;;;6.10;;
64678;SDS011;51094;53.864;27.676;2022-12-13T00:44:06;6.20;;;6.10;;
64678;SDS011;51094;53.864;27.676;2022-12-13T00:46:33;6.05;;;5.95;;
64678;SDS011;51094;53.864;27.676;2022-12-13T00:49:00;6.18;;;6.07;;
64678;SDS011;51094;53.864;27.676;2022-12-13T00:51:28;6.13;;;6.03;;
64678;SDS011;51094;53.864;27.676;2022-12-13T00:53:56;5.72;;;5.63;;
64678;SDS011;51094;53.864;27.676;2022-12-13T00:56:24;6.07;;;5.97;;
64678;SDS011;51094;53.864;27.676;2022-12-13T00:58:52;6.07;;;5.97;;
64678;SDS011;51094;53.864;27.676;2022-12-13T01:01:22;6.10;;;6.00;;
64678;SDS011;51094;53.864;27.676;2022-12-13T01:03:53;6.10;;;6.00;;
64678;SDS011;51094;53.864;27.676;2022-12-13T01:06:24;6.45;;;6.35;;
64678;SDS011;51094;53.864;27.676;2022-12-13T01:08:55;5.82;;;5.72;;
64678;SDS011;51094;53.864;27.676;2022-12-13T01:11:23;6.35;;;6.25;;
64678;SDS011;51094;53.864;27.676;2022-12-13T01:13:50;6.40;;;6.30;;
64678;SDS011;51094;53.864;27.676;2022-12-13T01:16:17;6.47;;;6.38;;
64678;SDS011;51094;53.864;27.676;2022-12-13T01:18:44;6.57;;;6.47;;
64678;SDS011;51094;53.864;27.676;2022-12-13T01:21:14;6.53;;;6.43;;
64678;SDS011;51094;53.864;27.676;2022-12-13T01:23:43;6.45;;;6.35;;
64678;SDS011;51094;53.864;27.676;2022-12-13T01:26:12;6.28;;;6.18;;
64678;SDS011;51094;53.864;27.676;2022-12-13T01:28:41;6.13;;;6.03;;
64678;SDS011;51094;53.864;27.676;2022-12-13T01:31:09;6.40;;;6.30;;
64678;SDS011;51094;53.864;27.676;2022-12-13T01:33:38;5.88;;;5.78;;
64678;SDS011;51094;53.864;27.676;2022-12-13T01:36:07;6.32;;;6.22;;
64678;SDS011;51094;53.864;27.676;2022-12-13T01:38:36;6.25;;;6.15;;
64678;SDS011;51094;53.864;27.676;2022-12-13T01:41:04;6.30;;;6.20;;
64678;SDS011;51094;53.864;27.676;2022-12-13T01:46:10;6.20;;;6.10;;
64678;SDS011;51094;53.864;27.676;2022-12-13T01:48:39;6.15;;;6.05;;
64678;SDS011;51094;53.864;27.676;2022-12-13T01:51:13;5.95;;;5.85;;
64678;SDS011;51094;53.864;27.676;2022-12-13T01:53:45;6.22;;;6.13;;
64678;SDS011;51094;53.864;27.676;2022-12-13T01:56:17;5.80;;;5.70;;
64678;SDS011;51094;53.864;27.676;2022-12-13T01:58:48;5.90;;;5.80;;
64678;SDS011;51094;53.864;27.676;2022-12-13T02:01:18;5.87;;;5.77;;
64678;SDS011;51094;53.864;27.676;2022-12-13T02:03:45;5.85;;;5.75;;
64678;SDS011;51094;53.864;27.676;2022-12-13T02:06:14;5.53;;;5.43;;
64678;SDS011;51094;53.864;27.676;2022-12-13T02:08:44;5.70;;;5.60;;
64678;SDS011;51094;53.864;27.676;2022-12-13T02:11:12;5.90;;;5.80;;
64678;SDS011;51094;53.864;27.676;2022-12-13T02:13:40;5.68;;;5.57;;
64678;SDS011;51094;53.864;27.676;2022-12-13T02:16:13;6.00;;;5.90;;
64678;SDS011;51094;53.864;27.676;2022-12-13T02:24:40;5.65;;;5.55;;
64678;SDS011;51094;53.864;27.676;2022-12-13T02:27:27;5.78;;;5.68;;
64678;SDS011;51094;53.864;27.676;2022-12-13T02:35:57;6.15;;;6.05;;
64678;SDS011;51094;53.864;27.676;2022-12-13T02:38:37;5.60;;;5.50;;
64678;SDS011;51094;53.864;27.676;2022-12-13T02:43:55;5.70;;;5.60;;
64678;SDS011;51094;53.864;27.676;2022-12-13T02:46:28;5.83;;;5.73;;
64678;SDS011;51094;53.864;27.676;2022-12-13T02:49:00;5.57;;;5.47;;
64678;SDS011;51094;53.864;27.676;2022-12-13T02:51:28;6.38;;;6.28;;
64678;SDS011;51094;53.864;27.676;2022-12-13T02:53:56;6.18;;;6.07;;
64678;SDS011;51094;53.864;27.676;2022-12-13T02:56:23;5.60;;;5.50;;
64678;SDS011;51094;53.864;27.676;2022-12-13T02:58:50;6.20;;;6.10;;
64678;SDS011;51094;53.864;27.676;2022-12-13T03:12:33;6.22;;;6.13;;
64678;SDS011;51094;53.864;27.676;2022-12-13T03:18:24;6.10;;;6.00;;
64678;SDS011;51094;53.864;27.676;2022-12-13T03:20:54;6.20;;;6.10;;
64678;SDS011;51094;53.864;27.676;2022-12-13T03:23:24;6.28;;;6.18;;
64678;SDS011;51094;53.864;27.676;2022-12-13T03:25:52;6.60;;;6.50;;
64678;SDS011;51094;53.864;27.676;2022-12-13T03:28:21;6.37;;;6.27;;
64678;SDS011;51094;53.864;27.676;2022-12-13T03:30:48;6.20;;;6.10;;
64678;SDS011;51094;53.864;27.676;2022-12-13T03:33:15;6.18;;;6.07;;
64678;SDS011;51094;53.864;27.676;2022-12-13T03:35:42;6.47;;;6.38;;
64678;SDS011;51094;53.864;27.676;2022-12-13T03:38:13;6.65;;;6.55;;
64678;SDS011;51094;53.864;27.676;2022-12-13T03:40:49;6.32;;;6.22;;
64678;SDS011;51094;53.864;27.676;2022-12-13T03:45:48;5.95;;;5.85;;
64678;SDS011;51094;53.864;27.676;2022-12-13T03:48:16;6.63;;;6.50;;
64678;SDS011;51094;53.864;27.676;2022-12-13T03:50:52;6.20;;;6.10;;
64678;SDS011;51094;53.864;27.676;2022-12-13T03:53:20;6.43;;;6.32;;
64678;SDS011;51094;53.864;27.676;2022-12-13T03:55:59;6.65;;;6.55;;
64678;SDS011;51094;53.864;27.676;2022-12-13T03:58:30;6.28;;;6.18;;
64678;SDS011;51094;53.864;27.676;2022-12-13T04:01:06;6.30;;;6.20;;
64678;SDS011;51094;53.864;27.676;2022-12-13T04:03:35;6.53;;;6.35;;
64678;SDS011;51094;53.864;27.676;2022-12-13T04:06:03;6.20;;;6.10;;
64678;SDS011;51094;53.864;27.676;2022-12-13T04:08:30;6.72;;;6.63;;
64678;SDS011;51094;53.864;27.676;2022-12-13T04:10:58;6.20;;;6.10;;
64678;SDS011;51094;53.864;27.676;2022-12-13T04:13:25;6.47;;;6.32;;
64678;SDS011;51094;53.864;27.676;2022-12-13T04:16:01;6.70;;;6.60;;
64678;SDS011;51094;53.864;27.676;2022-12-13T04:18:28;6.47;;;6.38;;
64678;SDS011;51094;53.864;27.676;2022-12-13T04:20:55;6.75;;;6.65;;
64678;SDS011;51094;53.864;27.676;2022-12-13T04:23:23;6.60;;;6.50;;
64678;SDS011;51094;53.864;27.676;2022-12-13T04:25:50;7.88;;;7.68;;
64678;SDS011;51094;53.864;27.676;2022-12-13T04:28:16;7.55;;;7.45;;
64678;SDS011;51094;53.864;27.676;2022-12-13T04:30:48;6.97;;;6.88;;
64678;SDS011;51094;53.864;27.676;2022-12-13T04:33:20;7.03;;;6.82;;
64678;SDS011;51094;53.864;27.676;2022-12-13T04:35:48;6.45;;;6.35;;
64678;SDS011;51094;53.864;27.676;2022-12-13T04:38:15;6.50;;;6.40;;
64678;SDS011;51094;53.864;27.676;2022-12-13T04:40:42;6.68;;;6.57;;
64678;SDS011;51094;53.864;27.676;2022-12-13T04:43:09;7.05;;;6.95;;
64678;SDS011;51094;53.864;27.676;2022-12-13T04:45:35;6.57;;;6.47;;
64678;SDS011;51094;53.864;27.676;2022-12-13T04:48:03;7.05;;;6.85;;
64678;SDS011;51094;53.864;27.676;2022-12-13T04:50:31;6.78;;;6.68;;
64678;SDS011;51094;53.864;27.676;2022-12-13T04:52:58;6.50;;;6.38;;
64678;SDS011;51094;53.864;27.676;2022-12-13T04:55:25;5.65;;;5.55;;
64678;SDS011;51094;53.864;27.676;2022-12-13T04:57:51;5.95;;;5.85;;
64678;SDS011;51094;53.864;27.676;2022-12-13T05:00:18;6.30;;;6.20;;
64678;SDS011;51094;53.864;27.676;2022-12-13T05:02:47;6.18;;;6.07;;
64678;SDS011;51094;53.864;27.676;2022-12-13T05:05:14;6.25;;;6.15;;
64678;SDS011;51094;53.864;27.676;2022-12-13T05:07:42;6.07;;;5.97;;
64678;SDS011;51094;53.864;27.676;2022-12-13T05:10:11;5.85;;;5.70;;
64678;SDS011;51094;53.864;27.676;2022-12-13T05:12:58;6.65;;;6.55;;
64678;SDS011;51094;53.864;27.676;2022-12-13T05:15:26;6.28;;;6.15;;
64678;SDS011;51094;53.864;27.676;2022-12-13T05:17:53;6.38;;;6.28;;
64678;SDS011;51094;53.864;27.676;2022-12-13T05:20:20;6.35;;;6.25;;
64678;SDS011;51094;53.864;27.676;2022-12-13T05:22:46;6.32;;;6.22;;
64678;SDS011;51094;53.864;27.676;2022-12-13T05:25:13;6.68;;;6.57;;
64678;SDS011;51094;53.864;27.676;2022-12-13T05:27:40;6.20;;;6.10;;
64678;SDS011;51094;53.864;27.676;2022-12-13T05:30:07;6.28;;;6.18;;
64678;SDS011;51094;53.864;27.676;2022-12-13T05:32:35;5.82;;;5.72;;
64678;SDS011;51094;53.864;27.676;2022-12-13T05:35:13;6.30;;;6.20;;
64678;SDS011;51094;53.864;27.676;2022-12-13T05:37:51;6.00;;;5.90;;
64678;SDS011;51094;53.864;27.676;2022-12-13T05:40:21;5.90;;;5.80;;
64678;SDS011;51094;53.864;27.676;2022-12-13T05:42:48;6.15;;;6.05;;
64678;SDS011;51094;53.864;27.676;2022-12-13T05:45:16;6.50;;;6.40;;
64678;SDS011;51094;53.864;27.676;2022-12-13T05:47:44;6.22;;;6.13;;
64678;SDS011;51094;53.864;27.676;2022-12-13T05:50:12;6.45;;;6.35;;
64678;SDS011;51094;53.864;27.676;2022-12-13T05:52:41;5.90;;;5.80;;
64678;SDS011;51094;53.864;27.676;2022-12-13T05:55:08;6.10;;;6.00;;
64678;SDS011;51094;53.864;27.676;2022-12-13T05:57:37;5.80;;;5.70;;
64678;SDS011;51094;53.864;27.676;2022-12-13T06:00:05;5.85;;;5.75;;
64678;SDS011;51094;53.864;27.676;2022-12-13T06:02:53;5.88;;;5.78;;
64678;SDS011;51094;53.864;27.676;2022-12-13T06:05:20;5.47;;;5.38;;
64678;SDS011;51094;53.864;27.676;2022-12-13T06:07:47;6.07;;;5.97;;
64678;SDS011;51094;53.864;27.676;2022-12-13T06:10:22;6.15;;;6.05;;
64678;SDS011;51094;53.864;27.676;2022-12-13T06:12:49;6.53;;;6.43;;
64678;SDS011;51094;53.864;27.676;2022-12-13T06:15:15;5.95;;;5.85;;
64678;SDS011;51094;53.864;27.676;2022-12-13T06:17:48;6.00;;;5.90;;
64678;SDS011;51094;53.864;27.676;2022-12-13T06:20:15;6.00;;;5.90;;
64678;SDS011;51094;53.864;27.676;2022-12-13T06:22:53;6.03;;;5.93;;
64678;SDS011;51094;53.864;27.676;2022-12-13T06:25:19;6.30;;;6.20;;
64678;SDS011;51094;53.864;27.676;2022-12-13T06:28:00;5.80;;;5.70;;
64678;SDS011;51094;53.864;27.676;2022-12-13T06:30:30;5.88;;;5.78;;
64678;SDS011;51094;53.864;27.676;2022-12-13T06:32:56;5.65;;;5.55;;
64678;SDS011;51094;53.864;27.676;2022-12-13T06:35:24;5.65;;;5.55;;
64678;SDS011;51094;53.864;27.676;2022-12-13T06:37:54;5.70;;;5.60;;
64678;SDS011;51094;53.864;27.676;2022-12-13T06:40:29;6.13;;;6.03;;
64678;SDS011;51094;53.864;27.676;2022-12-13T06:42:56;5.60;;;5.50;;
64678;SDS011;51094;53.864;27.676;2022-12-13T06:45:23;5.22;;;5.13;;
64678;SDS011;51094;53.864;27.676;2022-12-13T06:47:50;5.45;;;5.35;;
64678;SDS011;51094;53.864;27.676;2022-12-13T06:50:17;5.88;;;5.78;;
64678;SDS011;51094;53.864;27.676;2022-12-13T06:52:44;5.53;;;5.43;;
64678;SDS011;51094;53.864;27.676;2022-12-13T06:55:12;5.35;;;5.25;;
64678;SDS011;51094;53.864;27.676;2022-12-13T06:57:39;5.97;;;5.88;;
64678;SDS011;51094;53.864;27.676;2022-12-13T07:00:07;5.38;;;5.28;;
64678;SDS011;51094;53.864;27.676;2022-12-13T07:02:35;5.13;;;5.03;;
64678;SDS011;51094;53.864;27.676;2022-12-13T07:05:04;5.43;;;5.32;;
64678;SDS011;51094;53.864;27.676;2022-12-13T07:07:31;5.07;;;4.97;;
64678;SDS011;51094;53.864;27.676;2022-12-13T07:09:58;5.05;;;4.95;;
64678;SDS011;51094;53.864;27.676;2022-12-13T07:12:24;5.13;;;5.03;;
64678;SDS011;51094;53.864;27.676;2022-12-13T07:14:51;5.13;;;5.03;;
64678;SDS011;51094;53.864;27.676;2022-12-13T07:17:18;5.13;;;5.03;;
64678;SDS011;51094;53.864;27.676;2022-12-13T07:20:00;4.80;;;4.70;;
64678;SDS011;51094;53.864;27.676;2022-12-13T07:22:33;4.60;;;4.50;;
64678;SDS011;51094;53.864;27.676;2022-12-13T07:25:05;4.45;;;4.35;;
64678;SDS011;51094;53.864;27.676;2022-12-13T07:27:59;4.60;;;4.50;;
64678;SDS011;51094;53.864;27.676;2022-12-13T07:30:31;5.10;;;5.00;;
64678;SDS011;51094;53.864;27.676;2022-12-13T07:33:10;4.78;;;4.68;;
64678;SDS011;51094;53.864;27.676;2022-12-13T07:35:36;4.80;;;4.70;;
64678;SDS011;51094;53.864;27.676;2022-12-13T07:38:05;4.63;;;4.53;;
64678;SDS011;51094;53.864;27.676;2022-12-13T07:40:33;4.95;;;4.85;;
64678;SDS011;51094;53.864;27.676;2022-12-13T07:43:01;4.80;;;4.60;;
64678;SDS011;51094;53.864;27.676;2022-12-13T07:45:29;4.25;;;4.15;;
64678;SDS011;51094;53.864;27.676;2022-12-13T07:47:56;4.68;;;4.57;;
64678;SDS011;51094;53.864;27.676;2022-12-13T07:50:22;4.68;;;4.47;;
64678;SDS011;51094;53.864;27.676;2022-12-13T07:52:51;4.00;;;3.90;;
64678;SDS011;51094;53.864;27.676;2022-12-13T07:55:18;4.00;;;3.90;;
64678;SDS011;51094;53.864;27.676;2022-12-13T07:58:05;4.18;;;3.97;;
64678;SDS011;51094;53.864;27.676;2022-12-13T08:00:33;3.55;;;3.55;;
64678;SDS011;51094;53.864;27.676;2022-12-13T08:03:01;4.00;;;3.90;;
64678;SDS011;51094;53.864;27.676;2022-12-13T08:05:28;3.78;;;3.70;;
64678;SDS011;51094;53.864;27.676;2022-12-13T08:08:05;3.38;;;3.38;;
64678;SDS011;51094;53.864;27.676;2022-12-13T08:10:34;3.28;;;3.28;;
64678;SDS011;51094;53.864;27.676;2022-12-13T08:13:01;3.22;;;3.20;;
64678;SDS011;51094;53.864;27.676;2022-12-13T08:15:28;3.45;;;3.45;;
64678;SDS011;51094;53.864;27.676;2022-12-13T08:17:55;3.30;;;3.30;;
64678;SDS011;51094;53.864;27.676;2022-12-13T08:20:23;3.50;;;3.50;;
64678;SDS011;51094;53.864;27.676;2022-12-13T08:22:53;3.28;;;3.28;;
64678;SDS011;51094;53.864;27.676;2022-12-13T08:25:28;3.28;;;3.17;;
64678;SDS011;51094;53.864;27.676;2022-12-13T08:27:59;3.45;;;3.35;;
64678;SDS011;51094;53.864;27.676;2022-12-13T08:30:29;2.97;;;2.95;;
64678;SDS011;51094;53.864;27.676;2022-12-13T08:32:56;2.97;;;2.97;;
64678;SDS011;51094;53.864;27.676;2022-12-13T08:35:26;2.90;;;2.90;;
64678;SDS011;51094;53.864;27.676;2022-12-13T08:37:59;2.70;;;2.70;;
64678;SDS011;51094;53.864;27.676;2022-12-13T08:40:26;2.85;;;2.85;;
64678;SDS011;51094;53.864;27.676;2022-12-13T08:42:54;3.13;;;3.03;;
64678;SDS011;51094;53.864;27.676;2022-12-13T08:45:21;2.80;;;2.80;;
64678;SDS011;51094;53.864;27.676;2022-12-13T08:47:52;2.80;;;2.80;;
64678;SDS011;51094;53.864;27.676;2022-12-13T08:50:22;2.83;;;2.83;;
64678;SDS011;51094;53.864;27.676;2022-12-13T08:52:52;3.17;;;3.08;;
64678;SDS011;51094;53.864;27.676;2022-12-13T08:55:18;2.70;;;2.70;;
64678;SDS011;51094;53.864;27.676;2022-12-13T08:57:57;2.60;;;2.60;;
64678;SDS011;51094;53.864;27.676;2022-12-13T09:00:26;2.78;;;2.78;;
64678;SDS011;51094;53.864;27.676;2022-12-13T09:03:02;2.47;;;2.47;;
64678;SDS011;51094;53.864;27.676;2022-12-13T09:05:35;2.50;;;2.50;;
64678;SDS011;51094;53.864;27.676;2022-12-13T09:08:02;2.25;;;2.25;;
64678;SDS011;51094;53.864;27.676;2022-12-13T09:10:56;2.30;;;2.30;;
64678;SDS011;51094;53.864;27.676;2022-12-13T09:13:36;2.33;;;2.33;;
64678;SDS011;51094;53.864;27.676;2022-12-13T09:16:11;2.47;;;2.47;;
64678;SDS011;51094;53.864;27.676;2022-12-13T09:21:21;1.95;;;1.95;;
64678;SDS011;51094;53.864;27.676;2022-12-13T09:23:57;1.90;;;1.90;;
64678;SDS011;51094;53.864;27.676;2022-12-13T09:26:27;2.22;;;2.22;;
64678;SDS011;51094;53.864;27.676;2022-12-13T09:29:04;2.30;;;2.30;;
64678;SDS011;51094;53.864;27.676;2022-12-13T09:31:36;1.95;;;1.95;;
64678;SDS011;51094;53.864;27.676;2022-12-13T09:34:06;2.20;;;2.20;;
64678;SDS011;51094;53.864;27.676;2022-12-13T09:36:34;1.90;;;1.90;;
64678;SDS011;51094;53.864;27.676;2022-12-13T09:39:01;1.85;;;1.85;;
64678;SDS011;51094;53.864;27.676;2022-12-13T09:41:30;1.95;;;1.95;;
64678;SDS011;51094;53.864;27.676;2022-12-13T09:44:11;2.08;;;2.08;;
64678;SDS011;51094;53.864;27.676;2022-12-13T09:46:57;2.30;;;2.30;;
64678;SDS011;51094;53.864;27.676;2022-12-13T09:52:09;1.98;;;1.98;;
64678;SDS011;51094;53.864;27.676;2022-12-13T09:57:34;1.90;;;1.90;;
64678;SDS011;51094;53.864;27.676;2022-12-13T10:00:03;1.90;;;1.90;;
64678;SDS011;51094;53.864;27.676;2022-12-13T10:02:37;2.03;;;2.03;;
64678;SDS011;51094;53.864;27.676;2022-12-13T10:07:49;1.90;;;1.90;;
64678;SDS011;51094;53.864;27.676;2022-12-13T10:10:19;2.10;;;2.10;;
64678;SDS011;51094;53.864;27.676;2022-12-13T10:12:50;1.60;;;1.60;;
64678;SDS011;51094;53.864;27.676;2022-12-13T10:15:21;1.67;;;1.67;;
64678;SDS011;51094;53.864;27.676;2022-12-13T10:17:50;1.85;;;1.85;;
64678;SDS011;51094;53.864;27.676;2022-12-13T10:22:51;1.90;;;1.90;;
64678;SDS011;51094;53.864;27.676;2022-12-13T10:25:49;1.90;;;1.90;;
64678;SDS011;51094;53.864;27.676;2022-12-13T10:30:57;1.73;;;1.73;;
64678;SDS011;51094;53.864;27.676;2022-12-13T10:33:26;2.40;;;2.40;;
64678;SDS011;51094;53.864;27.676;2022-12-13T10:36:06;1.95;;;1.95;;
64678;SDS011;51094;53.864;27.676;2022-12-13T10:38:38;2.60;;;2.60;;
64678;SDS011;51094;53.864;27.676;2022-12-13T10:46:33;2.10;;;2.03;;
64678;SDS011;51094;53.864;27.676;2022-12-13T10:49:12;2.08;;;2.08;;
64678;SDS011;51094;53.864;27.676;2022-12-13T10:51:43;1.75;;;1.75;;
64678;SDS011;51094;53.864;27.676;2022-12-13T10:54:13;2.00;;;2.00;;
64678;SDS011;51094;53.864;27.676;2022-12-13T10:56:47;1.83;;;1.83;;
64678;SDS011;51094;53.864;27.676;2022-12-13T10:59:23;2.15;;;2.15;;
64678;SDS011;51094;53.864;27.676;2022-12-13T11:01:57;2.00;;;2.00;;
64678;SDS011;51094;53.864;27.676;2022-12-13T11:04:29;2.13;;;2.13;;
64678;SDS011;51094;53.864;27.676;2022-12-13T11:06:59;2.10;;;2.10;;
64678;SDS011;51094;53.864;27.676;2022-12-13T11:09:29;2.30;;;2.30;;
64678;SDS011;51094;53.864;27.676;2022-12-13T11:12:11;2.05;;;2.05;;
64678;SDS011;51094;53.864;27.676;2022-12-13T11:15:14;2.38;;;2.38;;
64678;SDS011;51094;53.864;27.676;2022-12-13T11:17:46;2.20;;;2.20;;
64678;SDS011;51094;53.864;27.676;2022-12-13T11:20:20;2.40;;;2.40;;
64678;SDS011;51094;53.864;27.676;2022-12-13T11:22:57;2.20;;;2.20;;
64678;SDS011;51094;53.864;27.676;2022-12-13T11:25:29;2.53;;;2.42;;
64678;SDS011;51094;53.864;27.676;2022-12-13T11:31:07;2.40;;;2.40;;
64678;SDS011;51094;53.864;27.676;2022-12-13T11:36:43;2.30;;;2.30;;
64678;SDS011;51094;53.864;27.676;2022-12-13T11:39:32;2.08;;;2.08;;
64678;SDS011;51094;53.864;27.676;2022-12-13T11:55:55;3.70;;;3.58;;
64678;SDS011;51094;53.864;27.676;2022-12-13T12:01:38;2.58;;;2.58;;
64678;SDS011;51094;53.864;27.676;2022-12-13T12:06:51;2.50;;;2.50;;
64678;SDS011;51094;53.864;27.676;2022-12-13T12:09:52;2.00;;;2.00;;
64678;SDS011;51094;53.864;27.676;2022-12-13T12:12:29;2.80;;;2.80;;
64678;SDS011;51094;53.864;27.676;2022-12-13T12:17:53;1.80;;;1.80;;
64678;SDS011;51094;53.864;27.676;2022-12-13T12:20:25;2.20;;;2.20;;
64678;SDS011;51094;53.864;27.676;2022-12-13T12:23:13;2.22;;;2.22;;
64678;SDS011;51094;53.864;27.676;2022-12-13T12:25:57;2.42;;;2.42;;
64678;SDS011;51094;53.864;27.676;2022-12-13T12:31:21;3.90;;;3.80;;
64678;SDS011;51094;53.864;27.676;2022-12-13T12:39:17;2.00;;;2.00;;
64678;SDS011;51094;53.864;27.676;2022-12-13T12:50:30;2.80;;;2.80;;
64678;SDS011;51094;53.864;27.676;2022-12-13T12:53:27;1.90;;;1.90;;
64678;SDS011;51094;53.864;27.676;2022-12-13T12:56:04;2.10;;;2.10;;
64678;SDS011;51094;53.864;27.676;2022-12-13T12:59:03;1.90;;;1.90;;
64678;SDS011;51094;53.864;27.676;2022-12-13T13:04:20;2.28;;;2.28;;
64678;SDS011;51094;53.864;27.676;2022-12-13T13:06:59;2.45;;;2.45;;
64678;SDS011;51094;53.864;27.676;2022-12-13T13:09:49;3.38;;;3.38;;
64678;SDS011;51094;53.864;27.676;2022-12-13T13:12:21;2.10;;;2.10;;
64678;SDS011;51094;53.864;27.676;2022-12-13T13:14:55;1.63;;;1.63;;
64678;SDS011;51094;53.864;27.676;2022-12-13T13:20:10;1.95;;;1.95;;
64678;SDS011;51094;53.864;27.676;2022-12-13T13:22:38;2.08;;;2.08;;
64678;SDS011;51094;53.864;27.676;2022-12-13T13:25:21;2.50;;;2.50;;
64678;SDS011;51094;53.864;27.676;2022-12-13T13:28:12;3.92;;;3.83;;
64678;SDS011;51094;53.864;27.676;2022-12-13T13:34:03;2.97;;;2.97;;
64678;SDS011;51094;53.864;27.676;2022-12-13T13:36:44;4.15;;;4.05;;
64678;SDS011;51094;53.864;27.676;2022-12-13T13:39:15;2.90;;;2.90;;
64678;SDS011;51094;53.864;27.676;2022-12-13T13:44:31;1.63;;;1.63;;
64678;SDS011;51094;53.864;27.676;2022-12-13T13:49:58;2.38;;;2.38;;
64678;SDS011;51094;53.864;27.676;2022-12-13T13:53:05;2.40;;;2.40;;
64678;SDS011;51094;53.864;27.676;2022-12-13T14:10:24;2.22;;;2.22;;
64678;SDS011;51094;53.864;27.676;2022-12-13T14:21:34;2.13;;;2.13;;
64678;SDS011;51094;53.864;27.676;2022-12-13T14:29:39;2.55;;;2.55;;
64678;SDS011;51094;53.864;27.676;2022-12-13T14:32:18;2.03;;;2.03;;
64678;SDS011;51094;53.864;27.676;2022-12-13T14:34:52;1.88;;;1.88;;
64678;SDS011;51094;53.864;27.676;2022-12-13T14:37:28;1.90;;;1.90;;
64678;SDS011;51094;53.864;27.676;2022-12-13T14:40:21;3.30;;;3.30;;
64678;SDS011;51094;53.864;27.676;2022-12-13T14:42:51;2.60;;;2.60;;
64678;SDS011;51094;53.864;27.676;2022-12-13T14:45:26;2.97;;;2.97;;
64678;SDS011;51094;53.864;27.676;2022-12-13T14:47:56;2.65;;;2.55;;
64678;SDS011;51094;53.864;27.676;2022-12-13T14:50:26;3.20;;;3.10;;
64678;SDS011;51094;53.864;27.676;2022-12-13T14:52:56;2.47;;;2.45;;
64678;SDS011;51094;53.864;27.676;2022-12-13T14:55:25;2.25;;;2.25;;
64678;SDS011;51094;53.864;27.676;2022-12-13T14:57:57;2.92;;;2.92;;
64678;SDS011;51094;53.864;27.676;2022-12-13T15:00:31;2.60;;;2.60;;
64678;SDS011;51094;53.864;27.676;2022-12-13T15:03:01;2.40;;;2.40;;
64678;SDS011;51094;53.864;27.676;2022-12-13T15:05:35;2.88;;;2.80;;
64678;SDS011;51094;53.864;27.676;2022-12-13T15:08:14;2.70;;;2.70;;
64678;SDS011;51094;53.864;27.676;2022-12-13T15:10:43;2.40;;;2.40;;
64678;SDS011;51094;53.864;27.676;2022-12-13T15:13:18;2.80;;;2.80;;
64678;SDS011;51094;53.864;27.676;2022-12-13T15:16:21;2.80;;;2.80;;
64678;SDS011;51094;53.864;27.676;2022-12-13T15:19:18;2.22;;;2.22;;
64678;SDS011;51094;53.864;27.676;2022-12-13T15:22:00;2.00;;;2.00;;
64678;SDS011;51094;53.864;27.676;2022-12-13T15:24:35;2.28;;;2.28;;
64678;SDS011;51094;53.864;27.676;2022-12-13T15:27:09;2.33;;;2.33;;
64678;SDS011;51094;53.864;27.676;2022-12-13T15:29:37;2.00;;;2.00;;
64678;SDS011;51094;53.864;27.676;2022-12-13T15:32:07;2.15;;;2.15;;
64678;SDS011;51094;53.864;27.676;2022-12-13T15:34:37;1.85;;;1.85;;
64678;SDS011;51094;53.864;27.676;2022-12-13T15:37:05;2.20;;;2.20;;
64678;SDS011;51094;53.864;27.676;2022-12-13T15:40:04;2.50;;;2.50;;
64678;SDS011;51094;53.864;27.676;2022-12-13T15:42:34;2.47;;;2.47;;
64678;SDS011;51094;53.864;27.676;2022-12-13T15:45:05;2.25;;;2.25;;
64678;SDS011;51094;53.864;27.676;2022-12-13T15:47:47;1.90;;;1.90;;
64678;SDS011;51094;53.864;27.676;2022-12-13T15:50:33;1.60;;;1.60;;
64678;SDS011;51094;53.864;27.676;2022-12-13T15:53:19;1.90;;;1.90;;
64678;SDS011;51094;53.864;27.676;2022-12-13T15:55:52;1.73;;;1.73;;
64678;SDS011;51094;53.864;27.676;2022-12-13T15:58:24;2.40;;;2.40;;
64678;SDS011;51094;53.864;27.676;2022-12-13T16:00:52;1.70;;;1.70;;
64678;SDS011;51094;53.864;27.676;2022-12-13T16:03:20;1.73;;;1.73;;
64678;SDS011;51094;53.864;27.676;2022-12-13T16:05:53;1.58;;;1.58;;
64678;SDS011;51094;53.864;27.676;2022-12-13T16:10:56;1.67;;;1.67;;
64678;SDS011;51094;53.864;27.676;2022-12-13T16:13:30;1.38;;;1.38;;
64678;SDS011;51094;53.864;27.676;2022-12-13T16:18:43;1.80;;;1.80;;
64678;SDS011;51094;53.864;27.676;2022-12-13T16:21:17;1.70;;;1.70;;
64678;SDS011;51094;53.864;27.676;2022-12-13T16:23:44;1.80;;;1.80;;
64678;SDS011;51094;53.864;27.676;2022-12-13T16:26:19;1.60;;;1.60;;
64678;SDS011;51094;53.864;27.676;2022-12-13T16:28:47;1.55;;;1.55;;
64678;SDS011;51094;53.864;27.676;2022-12-13T16:31:18;1.55;;;1.55;;
64678;SDS011;51094;53.864;27.676;2022-12-13T16:33:47;1.80;;;1.80;;
64678;SDS011;51094;53.864;27.676;2022-12-13T16:36:16;1.70;;;1.70;;
64678;SDS011;51094;53.864;27.676;2022-12-13T16:38:43;2.17;;;2.17;;
64678;SDS011;51094;53.864;27.676;2022-12-13T16:41:10;2.00;;;2.00;;
64678;SDS011;51094;53.864;27.676;2022-12-13T16:43:59;1.88;;;1.88;;
64678;SDS011;51094;53.864;27.676;2022-12-13T16:46:27;1.67;;;1.67;;
64678;SDS011;51094;53.864;27.676;2022-12-13T16:49:23;1.75;;;1.75;;
64678;SDS011;51094;53.864;27.676;2022-12-13T16:51:52;2.00;;;2.00;;
64678;SDS011;51094;53.864;27.676;2022-12-13T16:54:20;1.90;;;1.90;;
64678;SDS011;51094;53.864;27.676;2022-12-13T16:56:49;2.00;;;2.00;;
64678;SDS011;51094;53.864;27.676;2022-12-13T16:59:18;2.20;;;2.20;;
64678;SDS011;51094;53.864;27.676;2022-12-13T17:01:47;2.13;;;2.13;;
64678;SDS011;51094;53.864;27.676;2022-12-13T17:04:17;2.22;;;2.22;;
64678;SDS011;51094;53.864;27.676;2022-12-13T17:06:50;2.13;;;2.13;;
64678;SDS011;51094;53.864;27.676;2022-12-13T17:09:22;3.22;;;3.22;;
64678;SDS011;51094;53.864;27.676;2022-12-13T17:11:50;1.98;;;1.98;;
64678;SDS011;51094;53.864;27.676;2022-12-13T17:14:17;2.00;;;2.00;;
64678;SDS011;51094;53.864;27.676;2022-12-13T17:16:43;2.00;;;2.00;;
64678;SDS011;51094;53.864;27.676;2022-12-13T17:19:10;2.03;;;2.03;;
64678;SDS011;51094;53.864;27.676;2022-12-13T17:21:40;2.30;;;2.30;;
64678;SDS011;51094;53.864;27.676;2022-12-13T17:24:07;2.85;;;2.85;;
64678;SDS011;51094;53.864;27.676;2022-12-13T17:26:34;2.60;;;2.60;;
64678;SDS011;51094;53.864;27.676;2022-12-13T17:29:00;2.50;;;2.50;;
64678;SDS011;51094;53.864;27.676;2022-12-13T17:31:27;2.58;;;2.58;;